Aeroporto :
LOGIN :

Iscrizione | Disclaimer

   EN    FR    IT 

 










Sommario :    VFR   VFR Marginale   IFR   IFR Intensivo   IFR Molto Intensivo
Visibilità : 
Base nubi : 
>= 8 km
>= 3000ft
5 / 8 km
1000 / 3000 ft
1500m / 5 km
500 / 1000 ft
800 / 1500m
200 / 500 ft
< 800m
< 200 ft
Simboli :   Temporali  Nebbia  Neve Forte  Precipitazioni Forti  Vento > 20 kt
SIGMETs :   Varie  Temporali  Ghiacco  Turbolenza  Onda orograficha  Ceneri Vulcaniche






- Altitudine del aeroporto : 663 ft
- Codice IATA : BZK


UUBP - Bryansk

ULTIMO METAR :
  • 090800Z 23005MPS 9999 FEW033 12/01 Q1019 R16/CLRD70 NOSIG RMK QFE746/0995

METARs OBSOLETI :
  • 090730Z 24005MPS CAVOK 12/01 Q1019 R16/CLRD70 NOSIG RMK QFE746/0995
  • 090700Z 23005MPS CAVOK 11/01 Q1020 R16/CLRD70 NOSIG RMK QFE746/0995
  • 090630Z 22005MPS CAVOK 11/02 Q1020 R16/CLRD70 NOSIG RMK QFE747/0996
  • 090600Z 21003MPS CAVOK 09/03 Q1020 R16/CLRD70 NOSIG RMK QFE747/0996
  • 090530Z 22001MPS CAVOK 07/03 Q1020 R34/CLRD70 NOSIG RMK QFE748/0997

TAF TAF UUBP
Valido dal 09 a 06 ore il 09 a 15 ore UTC


090443Z 0906/0915 21005G10MPS CAVOK
TEMPO 0909/0915 SCT020



MetMap, La meteo Aeronautica in un colpo d'occhio ! - Copyright ORBIFLY Dicembre 2007 - Disclaimer

ORBIFLY MET'MAP TEAM :

Programmazione e sviluppo : Alexandra Zaïnal
Concezione : Baudouin d'Aumeries
Aiuto per la programmazione : Marc-Olivier Méhu
Supporto tecnico e logistico : Manuel Goepfert
Aiuto per la traduzione : Arnaldo La Scala

Contatto : metmap@orbifly.com




FONTI E CREDITI :

   NOAA